航空気象通報

ウインドサーファーのための航空気象通報による風予報です。

4/29-30の航空気象通報(国内、海外)

2008年04月29日 22時00分50秒 | TAF
羽田空港
TAF RJTT 290844Z 291812 01008KT 9999 FEW030
BECMG 0003 08008KT
BECMG 0306 15010KT
日本時間30日03-09時:010度から8ノットの風
09-12時:風が変化
12時:080度から8ノットの風
12-15時:風が変化
15-21時:150度から10ノットの風


那覇空港
TAF ROAH 290840Z 291812 08010KT 9999 FEW015 SCT030
日本時間30日03-21時:080度から10ノットの風


マウイのカフルイ空港
PHOG 291123Z 291212 07008G16KT P6SM FEW040 BKN250
FM1900 06018G28KT P6SM SCT040 BKN200
FM0600 07010G18KT P6SM FEW040 SCT250
ハワイ時間29日02-09時:070度から8ノット、突風16ノット
09-20時:060度から18ノット、突風28ノット

20時-30日02時:070度から10ノット、突風18ノット


サイパン空港
PGSN 291125Z 291212 09013KT P6SM VCSH SCT020
マリアナ時間29日22時-30日22時:090度から13ノットの風

コメント
この記事をはてなブックマークに追加